Latest Weather Observations for Mount Wellington

IDT60801

Issued at 2:05 am EST Thursday 24 April 2014 (issued every 30 minutes, with the page automatically refreshed every 10 minutes)

About weather observations | Map of weather stations | Latest weather observations for TAS | Other Formats
Station Details ID: 094087 Name: MOUNT WELLINGTON Lat: -42.90 Lon: 147.24 Height: 1260.47 m
Data from the previous 72 hours. | See also: Recent months at Mount Wellington
Date/Time
EST
Temp
°C
App
Temp
°C
Dew
Point
Rel
Hum
%
Delta-T
°C
Wind Press
QNH
hPa
Press
MSL
hPa
Rain
since 9 am
mm
Dir
 
Spd
km/h
Gust
km/h
Spd
kts
Gust
kts
24/02:00am 3.7 -8.4 3.0 95 0.3 NNW 56 74 30 40 - - 0.0
24/01:42am 3.6 -6.7 2.9 95 0.3 NNW 46 67 25 36 - - 0.0
24/01:30am 3.7 -7.3 3.0 95 0.3 NNW 50 69 27 37 - - 0.0
24/01:00am 3.7 -8.4 3.0 95 0.3 NNW 56 76 30 41 - - 0.0
24/12:30am 3.7 -8.1 3.0 95 0.3 NNW 54 76 29 41 - - 0.0
24/12:26am 3.6 -7.8 3.0 96 0.3 NNW 52 76 28 41 - - 0.0
24/12:00am 3.5 -8.2 3.2 98 0.1 NNW 54 70 29 38 - - 0.0
 
Date/Time
EST
Temp
°C
App
Temp
°C
Dew
Point
Rel
Hum
%
Delta-T
°C
Wind Press
QNH
hPa
Press
MSL
hPa
Rain
since 9 am
mm
Dir
 
Spd
km/h
Gust
km/h
Spd
kts
Gust
kts
23/11:30pm 3.4 -8.4 2.7 95 0.3 NW 54 65 29 35 - - 0.0
23/11:00pm 3.6 -10.7 2.4 92 0.5 NW 67 80 36 43 - - 0.0
23/10:30pm 3.3 -9.9 2.6 95 0.3 NW 61 76 33 41 - - 0.0
23/10:00pm 3.3 -9.1 2.6 95 0.3 NW 57 74 31 40 - - 0.0
23/09:30pm 3.3 -9.0 2.1 92 0.5 NW 56 72 30 39 - - 0.0
23/09:00pm 3.2 -8.4 1.9 91 0.6 NW 52 67 28 36 - - 0.0
23/08:30pm 3.4 -7.8 1.8 89 0.7 NW 50 63 27 34 - - 0.0
23/08:00pm 3.8 -8.6 1.7 86 0.9 NW 56 72 30 39 - - 0.0
23/07:30pm 4.1 -7.5 2.0 86 0.9 NW 52 67 28 36 - - 0.0
23/07:00pm 4.3 -8.0 2.0 85 1.0 NNW 56 67 30 36 - - 0.0
23/06:30pm 4.1 -6.3 2.3 88 0.8 NW 46 56 25 30 - - 0.0
23/06:00pm 4.0 -6.5 1.7 85 1.0 NNW 46 59 25 32 - - 0.0
23/05:30pm 4.2 -6.7 1.2 81 1.3 NNW 48 57 26 31 - - 0.0
23/05:00pm 4.5 -6.1 0.6 76 1.6 NW 46 57 25 31 - - 0.0
23/04:30pm 4.8 -4.8 0.9 76 1.6 NW 41 50 22 27 - - 0.0
23/04:00pm 4.7 -4.1 1.4 79 1.4 NNW 37 50 20 27 - - 0.0
23/03:30pm 5.1 -4.4 1.8 79 1.4 NW 41 52 22 28 - - 0.0
23/03:00pm 5.2 -3.8 2.2 81 1.3 NNW 39 52 21 28 - - 0.0
23/02:30pm 5.1 -3.5 2.5 83 1.1 NW 37 50 20 27 - - 0.0
23/02:00pm 4.7 -3.1 2.6 86 0.9 NW 33 43 18 23 - - 0.0
23/01:30pm 4.9 -2.4 2.6 85 1.0 NW 30 44 16 24 - - 0.0
23/01:00pm 5.2 -2.5 2.4 82 1.2 W 32 39 17 21 - - 0.0
23/12:30pm 5.0 -3.7 1.7 79 1.4 WNW 37 50 20 27 - - 0.0
23/12:00pm 5.0 -3.4 1.5 78 1.5 WNW 35 46 19 25 - - 0.0
23/11:30am 5.3 -3.5 1.6 77 1.6 W 37 44 20 24 - - 0.0
23/11:00am 4.5 -3.9 1.5 81 1.3 W 35 50 19 27 - - 0.0
23/10:31am 4.9 -3.5 1.7 80 1.4 W 35 54 19 29 - - 0.0
23/10:30am 4.6 -4.2 1.5 80 1.3 W 37 56 20 30 - - 0.0
23/10:00am 3.7 -6.2 1.4 85 1.0 WNW 43 52 23 28 - - 0.0
23/09:30am 3.0 -6.7 0.7 85 0.9 WNW 41 61 22 33 - - 0.0
23/09:26am 2.7 -6.6 0.9 88 0.7 WNW 39 61 21 33 - - 0.0
23/09:00am 2.4 -6.1 0.9 90 0.6 W 35 46 19 25 - - 0.0
23/08:30am 2.3 -6.4 2.0 98 0.1 W 37 46 20 25 - - 0.0
23/08:00am 2.1 -7.4 1.8 98 0.1 WNW 41 52 22 28 - - 0.0
23/07:30am 1.6 -6.8 1.3 98 0.1 WNW 35 44 19 24 - - 0.0
23/07:00am 1.3 -6.7 0.1 92 0.5 WNW 32 39 17 21 - - 0.0
23/06:30am 1.2 -7.9 -0.4 89 0.6 W 37 44 20 24 - - 0.0
23/06:00am 1.0 -7.6 -0.1 92 0.4 WNW 35 44 19 24 - - 0.0
23/05:40am 0.9 -8.5 -0.1 93 0.4 W 39 59 21 32 - - 0.0
23/05:30am 1.1 -9.3 -0.1 92 0.5 W 44 56 24 30 - - 0.0
23/05:15am 1.1 -8.3 -0.2 91 0.5 W 39 57 21 31 - - 0.0
23/05:00am 1.6 -8.6 -0.3 87 0.8 W 43 61 23 33 - - 0.0
23/04:30am 1.6 -9.1 0.0 89 0.6 W 46 63 25 34 - - 0.0
23/04:00am 1.6 -9.9 0.0 89 0.6 W 50 65 27 35 - - 0.0
23/03:52am 1.4 -9.0 -0.1 90 0.6 W 44 65 24 35 - - 0.0
23/03:30am 1.3 -9.0 0.0 91 0.5 W 44 56 24 30 - - 0.0
23/03:00am 1.3 -8.1 -0.3 89 0.6 W 39 52 21 28 - - 0.0
23/02:59am 1.3 -8.1 -0.3 89 0.6 W 39 57 21 31 - - 0.0
23/02:30am 1.5 -8.0 -0.6 86 0.8 WSW 39 52 21 28 - - 0.0
23/02:16am 1.5 -8.0 -0.6 86 0.8 W 39 59 21 32 - - 0.0
23/02:00am 1.5 -9.3 -0.6 86 0.8 W 46 56 25 30 - - 0.0
23/01:30am 1.5 -8.6 0.2 91 0.5 WSW 43 56 23 30 - - 0.0
23/01:00am 1.8 -8.8 0.6 92 0.5 WSW 46 59 25 32 - - 0.0
23/12:30am 2.0 -9.7 1.0 93 0.4 WSW 52 67 28 36 - - 0.0
23/12:00am 2.0 -9.0 0.8 92 0.5 W 48 65 26 35 - - 0.0
 
Date/Time
EST
Temp
°C
App
Temp
°C
Dew
Point
Rel
Hum
%
Delta-T
°C
Wind Press
QNH
hPa
Press
MSL
hPa
Rain
since 9 am
mm
Dir
 
Spd
km/h
Gust
km/h
Spd
kts
Gust
kts
22/11:39pm 2.3 -7.8 1.6 95 0.3 W 44 65 24 35 - - 0.0
22/11:30pm 2.3 -8.9 1.6 95 0.3 W 50 63 27 34 - - 0.0
22/11:00pm 2.3 -7.8 1.7 96 0.3 WSW 44 59 24 32 - - 0.0
22/10:30pm 2.2 -8.4 0.7 90 0.6 WSW 46 61 25 33 - - 0.0
22/10:01pm 2.2 -10.0 0.4 88 0.7 W 54 74 29 40 - - 0.0
22/10:00pm 2.2 -10.4 0.4 88 0.7 W 56 74 30 40 - - 0.0
22/09:30pm 1.9 -10.0 0.0 87 0.8 WSW 52 80 28 43 - - 0.0
22/09:26pm 1.9 -10.7 0.0 87 0.8 WSW 56 80 30 43 - - 0.0
22/09:00pm 1.8 -8.5 0.0 88 0.7 WSW 44 59 24 32 - - 0.0
22/08:31pm 1.8 -8.9 -0.1 87 0.8 WSW 46 69 25 37 - - 0.0
22/08:30pm 1.8 -8.6 -0.1 87 0.8 WSW 44 61 24 33 - - 0.0
22/08:00pm 2.2 -7.4 1.0 92 0.5 WSW 41 63 22 34 - - 0.0
22/07:57pm 2.3 -7.7 1.0 91 0.5 W 43 63 23 34 - - 0.0
22/07:30pm 3.0 -8.1 2.4 96 0.3 WSW 50 65 27 35 - - 0.0
22/07:07pm 3.1 -6.3 2.5 96 0.3 W 41 61 22 33 - - 0.0
22/07:00pm 3.2 -6.5 2.6 96 0.3 W 43 56 23 30 - - 0.0
22/06:37pm 3.3 -6.6 2.7 96 0.3 W 44 63 24 34 - - 0.0
22/06:30pm 3.6 -6.7 2.4 92 0.5 W 46 65 25 35 - - 0.0
22/06:00pm 3.7 -7.9 1.6 86 0.9 W 52 80 28 43 - - 0.0
22/05:30pm 3.4 -7.9 1.1 85 1.0 W 50 70 27 38 - - 0.0
22/05:03pm 3.4 -8.7 0.8 83 1.1 W 54 78 29 42 - - 0.0
22/05:00pm 3.4 -8.7 0.8 83 1.1 W 54 72 29 39 - - 0.0
22/04:30pm 3.8 -8.0 0.7 80 1.3 W 52 70 28 38 - - 0.0
22/04:00pm 4.1 -8.1 0.3 76 1.6 W 54 69 29 37 - - 0.0
22/03:40pm 4.4 -7.8 0.4 75 1.7 W 54 74 29 40 - - 0.0
22/03:30pm 4.9 -7.3 0.5 73 1.8 W 54 70 29 38 - - 0.0
22/03:21pm 5.2 -6.1 1.0 74 1.8 W 50 70 27 38 - - 0.0
22/03:00pm 4.9 -7.2 1.2 77 1.6 W 54 70 29 38 - - 0.0
22/02:30pm 5.4 -7.2 1.1 74 1.8 W 57 74 31 40 - - 0.0
22/02:19pm 5.8 -6.2 1.3 73 1.9 W 54 78 29 42 - - 0.0
22/02:00pm 5.6 -5.7 1.2 73 1.9 WSW 50 63 27 34 - - 0.0
22/01:46pm 6.0 -4.0 2.3 77 1.6 W 44 63 24 34 - - 0.0
22/01:30pm 6.0 -5.3 1.2 71 2.1 W 50 67 27 36 - - 0.0
22/01:19pm 6.1 -5.1 -0.6 62 2.8 W 48 74 26 40 - - 0.0
22/01:00pm 6.7 -3.1 3.3 79 1.5 W 44 59 24 32 - - 0.0
22/12:30pm 5.9 -4.6 3.7 86 1.0 W 48 69 26 37 - - 0.0
22/12:19pm 6.7 -2.9 4.5 86 1.0 W 44 80 24 43 - - 0.0
22/12:04pm 6.3 -2.1 5.4 94 0.4 W 39 57 21 31 - - 0.0
22/12:00pm 6.3 -2.8 5.7 96 0.3 W 43 57 23 31 - - 0.0
22/11:30am 7.0 -3.8 4.1 82 1.4 W 50 74 27 40 - - 0.0
22/11:04am 7.1 -1.5 4.6 84 1.2 W 39 61 21 33 - - 0.0
22/11:00am 7.1 -0.7 4.9 86 1.0 W 35 50 19 27 - - 0.0
22/10:30am 7.2 -4.2 4.9 85 1.1 WNW 54 78 29 42 - - 0.0
22/10:21am 6.4 -5.2 6.0 97 0.2 WNW 56 76 30 41 - - 0.0
22/10:00am 6.1 -5.1 5.7 97 0.2 W 54 70 29 38 - - 0.0
22/09:31am 6.0 -4.1 5.7 98 0.1 WNW 48 70 26 38 - - 0.0
22/09:30am 5.9 -3.8 5.6 98 0.1 WNW 46 61 25 33 - - 0.0
22/09:00am 6.2 -4.2 5.9 98 0.1 WNW 50 72 27 39 - - 8.6
22/08:56am 6.2 -4.2 5.9 98 0.1 WNW 50 72 27 39 - - 8.6
22/08:30am 6.2 -4.6 5.9 98 0.1 W 52 69 28 37 - - 8.6
22/08:00am 6.3 -3.7 6.2 99 0.0 WNW 48 61 26 33 - - 8.6
22/07:46am 6.3 -2.9 6.2 99 0.0 W 44 63 24 34 - - 8.6
22/07:30am 6.3 -2.4 6.2 99 0.0 WNW 41 57 22 31 - - 8.6
22/07:25am 6.3 -1.6 6.2 99 0.0 W 37 57 20 31 - - 8.6
22/07:00am 6.3 -0.8 6.2 99 0.0 WNW 33 46 18 25 - - 8.6
22/06:38am 6.3 -2.4 6.2 99 0.0 WNW 41 61 22 33 - - 8.6
22/06:30am 6.4 -1.9 6.3 99 0.0 WNW 39 50 21 27 - - 8.6
22/06:00am 6.7 -2.4 6.6 99 0.0 WNW 44 63 24 34 - - 8.6
22/05:43am 6.9 -2.2 6.8 99 0.0 WNW 44 63 24 34 - - 8.6
22/05:30am 7.0 -3.6 6.9 99 0.0 WNW 52 70 28 38 - - 8.6
22/05:00am 7.2 -4.1 7.1 99 0.0 NW 56 78 30 42 - - 8.6
22/04:30am 7.2 -5.4 7.1 99 0.0 NW 63 85 34 46 - - 8.6
22/04:00am 7.1 -7.3 7.0 99 0.0 NW 72 95 39 51 - - 8.6
22/03:30am 6.9 -6.6 6.8 99 0.0 NW 67 87 36 47 - - 8.6
22/03:03am 6.8 -5.9 6.7 99 0.0 NW 63 85 34 46 - - 8.6
22/03:00am 6.8 -5.9 6.7 99 0.0 NW 63 80 34 43 - - 8.6
22/02:49am 6.8 -6.7 6.7 99 0.0 NW 67 87 36 47 - - 8.6
22/02:30am 6.8 -7.3 6.7 99 0.0 NW 70 89 38 48 - - 8.4
22/02:00am 6.6 -7.5 6.5 99 0.0 NW 70 95 38 51 - - 8.4
22/01:42am 6.6 -7.9 6.5 99 0.0 NNW 72 93 39 50 - - 8.4
22/01:30am 6.5 -8.0 6.4 99 0.0 NNW 72 89 39 48 - - 8.4
22/01:00am 6.2 -7.0 6.1 99 0.0 NNW 65 91 35 49 - - 8.4
22/12:30am 5.9 -8.2 5.8 99 0.0 NNW 69 91 37 49 - - 8.2
22/12:00am 5.4 -7.3 5.3 99 0.0 NNW 61 83 33 45 - - 8.2
 
Date/Time
EST
Temp
°C
App
Temp
°C
Dew
Point
Rel
Hum
%
Delta-T
°C
Wind Press
QNH
hPa
Press
MSL
hPa
Rain
since 9 am
mm
Dir
 
Spd
km/h
Gust
km/h
Spd
kts
Gust
kts
21/11:30pm 5.3 -6.0 5.2 99 0.0 N 54 76 29 41 - - 8.0
21/11:07pm 5.3 -6.0 5.2 99 0.0 N 54 72 29 39 - - 8.0
21/11:00pm 5.3 -7.0 5.2 99 0.0 NNW 59 74 32 40 - - 8.0
21/10:30pm 5.1 -8.0 5.0 99 0.0 NNW 63 83 34 45 - - 6.0
21/10:23pm 5.0 -8.1 4.9 99 0.0 NNW 63 83 34 45 - - 5.8
21/10:22pm 5.0 -8.9 4.9 99 0.0 NNW 67 83 36 45 - - 5.6
21/10:12pm 5.1 -4.8 5.0 99 0.0 N 46 67 25 36 - - 5.6
21/10:00pm 5.1 -4.2 5.0 99 0.0 NNW 43 59 23 32 - - 5.4
21/09:48pm 5.2 -4.3 5.1 99 0.0 NNW 44 63 24 34 - - 5.2
21/09:30pm 5.3 -4.5 5.2 99 0.0 NNW 46 59 25 32 - - 4.8
21/09:00pm 5.2 -5.4 5.1 99 0.0 NNW 50 61 27 33 - - 3.6
21/08:30pm 4.9 -4.6 4.8 99 0.0 NNW 44 56 24 30 - - 2.4
21/08:00pm 4.6 -6.9 4.5 99 0.0 NNW 54 72 29 39 - - 0.8
21/07:53pm 4.6 -6.5 4.5 99 0.0 NNW 52 72 28 39 - - 0.8
21/07:30pm 4.3 -5.3 4.2 99 0.0 N 44 54 24 29 - - 0.4
21/07:00pm 3.9 -4.9 3.8 99 0.0 N 39 50 21 27 - - 0.4
21/06:30pm 3.6 -4.8 3.5 99 0.0 N 37 46 20 25 - - 0.2
21/06:00pm 2.5 -5.2 2.2 98 0.1 N 32 43 17 23 - - 0.2
21/05:30pm 3.0 -4.6 2.7 98 0.1 N 32 37 17 20 - - 0.2
21/05:00pm 3.2 -4.1 2.6 96 0.3 NNW 30 41 16 22 - - 0.0
21/04:30pm 3.5 -3.4 2.5 93 0.4 N 28 33 15 18 - - 0.0
21/04:00pm 2.3 -3.4 0.7 89 0.7 N 20 35 11 19 - - 0.0
21/03:30pm 2.5 -4.1 -0.3 82 1.1 N 24 28 13 15 - - 0.0
21/03:00pm 2.4 -4.6 -0.4 82 1.1 N 26 32 14 17 - - 0.0
21/02:30pm 2.4 -5.0 -0.5 81 1.2 N 28 35 15 19 - - 0.0
21/02:00pm 2.2 -4.9 -1.1 79 1.3 N 26 32 14 17 - - 0.0
21/01:30pm 2.5 -4.2 -1.3 76 1.5 N 24 30 13 16 - - 0.0
21/01:00pm 2.0 -5.1 -1.4 78 1.3 N 26 32 14 17 - - 0.0
21/12:30pm 1.8 -6.1 -1.8 77 1.4 N 30 35 16 19 - - 0.0
21/12:00pm 2.4 -5.1 -1.7 74 1.6 N 28 33 15 18 - - 0.0
21/11:30am 2.0 -5.1 -1.1 80 1.2 N 26 35 14 19 - - 0.0
21/11:00am 1.4 -5.9 -2.7 74 1.6 N 26 33 14 18 - - 0.0
21/10:30am 2.2 -3.6 -0.2 84 1.0 N 20 33 11 18 - - 0.0
21/10:00am 1.6 -4.3 -1.0 83 1.0 N 20 26 11 14 - - 0.0
21/09:30am 0.9 -4.2 -1.7 83 1.0 N 15 19 8 10 - - 0.0
21/09:00am 0.3 -4.1 -2.1 84 0.9 NNE 11 15 6 8 - - 1.8
21/08:30am -0.1 -3.8 -2.6 83 0.9 NNE 7 9 4 5 - - 1.8
21/08:00am -0.4 -3.2 -3.1 82 1.0 SW 2 9 1 5 - - 1.8
21/07:30am -1.0 -3.4 -3.4 84 0.8 CALM 0 0 0 0 - - 1.8
21/07:00am -1.3 -3.8 -3.6 84 0.8 CALM 0 0 0 0 - - 1.8
21/06:30am -1.6 -6.1 -3.6 86 0.6 SW 11 15 6 8 - - 1.8
21/06:00am -1.5 -7.5 -3.1 89 0.5 SW 19 22 10 12 - - 1.8
21/05:30am -1.6 -7.2 -3.3 88 0.5 SSW 17 20 9 11 - - 1.8
21/05:00am -1.6 -6.9 -3.6 86 0.6 SSW 15 22 8 12 - - 1.8
21/04:30am -1.7 -8.7 -3.7 86 0.6 SW 24 32 13 17 - - 1.8
21/04:00am -1.9 -11.4 -3.9 86 0.6 SW 37 44 20 24 - - 1.8
21/03:30am -2.0 -10.1 -3.4 90 0.4 WSW 30 37 16 20 - - 1.8
21/03:00am -1.9 -10.0 -3.3 90 0.4 SW 30 37 16 20 - - 1.8
21/02:30am -2.0 -9.7 -3.1 92 0.3 SW 28 33 15 18 - - 1.8

Other Formats:

Comma delimited format used in spreadsheet applications
http://www.bom.gov.au/fwo/IDT60801/IDT60801.95979.axf

JavaScript Object Notation format (JSON) in row-major order
http://www.bom.gov.au/fwo/IDT60801/IDT60801.95979.json